sensor_id;sensor_type;location;lat;lon;timestamp;pressure;altitude;pressure_sealevel;temperature;humidity
80509;BME280;69838;52.602;13.434;2023-09-19T00:00:12;100121.09;;;16.97;96.42
80509;BME280;69838;52.602;13.434;2023-09-19T00:00:58;100120.66;;;16.92;96.63
80509;BME280;69838;52.602;13.434;2023-09-19T00:01:43;100106.47;;;16.98;96.26
80509;BME280;69838;52.602;13.434;2023-09-19T00:02:30;100113.94;;;16.96;96.51
80509;BME280;69838;52.602;13.434;2023-09-19T00:03:16;100120.22;;;16.97;96.37
80509;BME280;69838;52.602;13.434;2023-09-19T00:04:01;100113.44;;;16.91;96.62
80509;BME280;69838;52.602;13.434;2023-09-19T00:04:48;100114.19;;;16.93;96.47
80509;BME280;69838;52.602;13.434;2023-09-19T00:05:36;100111.06;;;16.98;96.18
80509;BME280;69838;52.602;13.434;2023-09-19T00:06:21;100114.19;;;16.93;96.51
80509;BME280;69838;52.602;13.434;2023-09-19T00:07:11;100103.88;;;16.97;96.17
80509;BME280;69838;52.602;13.434;2023-09-19T00:07:57;100113.06;;;16.96;96.36
80509;BME280;69838;52.602;13.434;2023-09-19T00:08:43;100109.47;;;16.95;96.31
80509;BME280;69838;52.602;13.434;2023-09-19T00:09:29;100115.91;;;16.94;96.30
80509;BME280;69838;52.602;13.434;2023-09-19T00:10:15;100111.44;;;16.93;96.32
80509;BME280;69838;52.602;13.434;2023-09-19T00:11:02;100111.44;;;16.93;96.26
80509;BME280;69838;52.602;13.434;2023-09-19T00:11:49;100103.28;;;16.93;96.34
80509;BME280;69838;52.602;13.434;2023-09-19T00:12:35;100113.94;;;16.96;96.16
80509;BME280;69838;52.602;13.434;2023-09-19T00:13:21;100110.84;;;16.90;96.42
80509;BME280;69838;52.602;13.434;2023-09-19T00:14:09;100110.25;;;16.86;96.67
80509;BME280;69838;52.602;13.434;2023-09-19T00:14:55;100114.84;;;16.86;96.72
80509;BME280;69838;52.602;13.434;2023-09-19T00:15:43;100111.47;;;16.82;96.83
80509;BME280;69838;52.602;13.434;2023-09-19T00:16:33;100116.72;;;16.85;96.53
80509;BME280;69838;52.602;13.434;2023-09-19T00:17:18;100119.56;;;16.84;96.75
80509;BME280;69838;52.602;13.434;2023-09-19T00:18:04;100110.97;;;16.88;96.60
80509;BME280;69838;52.602;13.434;2023-09-19T00:18:51;100106.78;;;16.84;96.69
80509;BME280;69838;52.602;13.434;2023-09-19T00:19:37;100107.50;;;16.86;96.51
80509;BME280;69838;52.602;13.434;2023-09-19T00:20:23;100103.22;;;16.84;96.51
80509;BME280;69838;52.602;13.434;2023-09-19T00:21:09;100105.03;;;16.83;96.78
80509;BME280;69838;52.602;13.434;2023-09-19T00:21:55;100098.81;;;16.81;96.62
80509;BME280;69838;52.602;13.434;2023-09-19T00:22:41;100097.63;;;16.74;97.11
80509;BME280;69838;52.602;13.434;2023-09-19T00:23:28;100098.63;;;16.73;97.24
80509;BME280;69838;52.602;13.434;2023-09-19T00:24:13;100099.63;;;16.72;97.26
80509;BME280;69838;52.602;13.434;2023-09-19T00:24:59;100098.16;;;16.68;97.43
80509;BME280;69838;52.602;13.434;2023-09-19T00:25:45;100100.88;;;16.68;97.43
80509;BME280;69838;52.602;13.434;2023-09-19T00:26:31;100090.09;;;16.66;97.39
80509;BME280;69838;52.602;13.434;2023-09-19T00:27:17;100102.16;;;16.64;97.56
80509;BME280;69838;52.602;13.434;2023-09-19T00:28:04;100099.88;;;16.69;97.35
80509;BME280;69838;52.602;13.434;2023-09-19T00:28:53;100099.63;;;16.72;97.07
80509;BME280;69838;52.602;13.434;2023-09-19T00:29:39;100104.47;;;16.68;97.18
80509;BME280;69838;52.602;13.434;2023-09-19T00:30:25;100097.78;;;16.61;97.62
80509;BME280;69838;52.602;13.434;2023-09-19T00:31:10;100098.41;;;16.65;97.66
80509;BME280;69838;52.602;13.434;2023-09-19T00:31:56;100100.16;;;16.66;97.41
80509;BME280;69838;52.602;13.434;2023-09-19T00:32:42;100102.16;;;16.64;97.51
80509;BME280;69838;52.602;13.434;2023-09-19T00:33:28;100096.69;;;16.64;97.57
80509;BME280;69838;52.602;13.434;2023-09-19T00:34:15;100103.97;;;16.63;97.55
80509;BME280;69838;52.602;13.434;2023-09-19T00:35:02;100099.66;;;16.60;97.83
80509;BME280;69838;52.602;13.434;2023-09-19T00:35:49;100098.41;;;16.65;97.48
80509;BME280;69838;52.602;13.434;2023-09-19T00:36:35;100101.84;;;16.67;97.28
80509;BME280;69838;52.602;13.434;2023-09-19T00:37:21;100095.44;;;16.68;96.87
80509;BME280;69838;52.602;13.434;2023-09-19T00:38:06;100097.63;;;16.74;96.77
80509;BME280;69838;52.602;13.434;2023-09-19T00:38:53;100089.91;;;16.79;96.38
80509;BME280;69838;52.602;13.434;2023-09-19T00:39:38;100099.38;;;16.75;96.62
80509;BME280;69838;52.602;13.434;2023-09-19T00:40:24;100107.06;;;16.70;96.68
80509;BME280;69838;52.602;13.434;2023-09-19T00:41:11;100103.84;;;16.65;97.11
80509;BME280;69838;52.602;13.434;2023-09-19T00:41:58;100095.81;;;16.63;97.28
80509;BME280;69838;52.602;13.434;2023-09-19T00:42:44;100105.31;;;16.69;96.92
80509;BME280;69838;52.602;13.434;2023-09-19T00:43:30;100107.31;;;16.67;96.98
80509;BME280;69838;52.602;13.434;2023-09-19T00:44:20;100098.88;;;16.70;96.70
80509;BME280;69838;52.602;13.434;2023-09-19T00:45:09;100108.81;;;16.71;96.50
80509;BME280;69838;52.602;13.434;2023-09-19T00:45:56;100096.41;;;16.67;96.80
80509;BME280;69838;52.602;13.434;2023-09-19T00:46:42;100102.16;;;16.64;96.93
80509;BME280;69838;52.602;13.434;2023-09-19T00:47:28;100103.84;;;16.65;97.08
80509;BME280;69838;52.602;13.434;2023-09-19T00:48:15;100102.41;;;16.60;97.23
80509;BME280;69838;52.602;13.434;2023-09-19T00:49:02;100106.81;;;16.61;97.20
80509;BME280;69838;52.602;13.434;2023-09-19T00:49:47;100105.13;;;16.60;97.26
80509;BME280;69838;52.602;13.434;2023-09-19T00:50:38;100103.59;;;16.68;96.57
80509;BME280;69838;52.602;13.434;2023-09-19T00:51:27;100103.97;;;16.74;96.11
80509;BME280;69838;52.602;13.434;2023-09-19T00:52:12;100105.81;;;16.85;95.41
80509;BME280;69838;52.602;13.434;2023-09-19T00:52:59;100098.59;;;16.84;95.45
80509;BME280;69838;52.602;13.434;2023-09-19T00:53:45;100104.06;;;16.84;95.47
80509;BME280;69838;52.602;13.434;2023-09-19T00:54:33;100105.16;;;16.82;95.74
80509;BME280;69838;52.602;13.434;2023-09-19T00:55:19;100101.69;;;16.79;95.63
80509;BME280;69838;52.602;13.434;2023-09-19T00:56:05;100105.66;;;16.75;95.85
80509;BME280;69838;52.602;13.434;2023-09-19T00:56:53;100107.06;;;16.70;96.26
80509;BME280;69838;52.602;13.434;2023-09-19T00:57:39;100103.47;;;16.69;96.32
80509;BME280;69838;52.602;13.434;2023-09-19T00:58:25;100096.28;;;16.68;96.26
80509;BME280;69838;52.602;13.434;2023-09-19T00:59:17;100105.31;;;16.69;96.29
80509;BME280;69838;52.602;13.434;2023-09-19T01:00:05;100103.00;;;16.64;96.49
80509;BME280;69838;52.602;13.434;2023-09-19T01:00:52;100099.41;;;16.64;96.68
80509;BME280;69838;52.602;13.434;2023-09-19T01:01:39;100103.38;;;16.59;96.88
80509;BME280;69838;52.602;13.434;2023-09-19T01:02:25;100106.69;;;16.63;96.56
80509;BME280;69838;52.602;13.434;2023-09-19T01:03:12;100109.56;;;16.61;96.56
80509;BME280;69838;52.602;13.434;2023-09-19T01:03:59;100106.09;;;16.59;96.68
80509;BME280;69838;52.602;13.434;2023-09-19T01:04:44;100109.09;;;16.56;96.93
80509;BME280;69838;52.602;13.434;2023-09-19T01:05:30;100107.34;;;16.55;96.97
80509;BME280;69838;52.602;13.434;2023-09-19T01:06:16;100104.50;;;16.57;96.88
80509;BME280;69838;52.602;13.434;2023-09-19T01:07:03;100107.34;;;16.55;96.98
80509;BME280;69838;52.602;13.434;2023-09-19T01:07:49;100109.09;;;16.56;97.13
80509;BME280;69838;52.602;13.434;2023-09-19T01:08:35;100112.06;;;16.53;97.16
80509;BME280;69838;52.602;13.434;2023-09-19T01:09:21;100111.22;;;16.53;97.12
80509;BME280;69838;52.602;13.434;2023-09-19T01:10:08;100113.53;;;16.57;96.94
80509;BME280;69838;52.602;13.434;2023-09-19T01:10:59;100105.88;;;16.51;97.01
80509;BME280;69838;52.602;13.434;2023-09-19T01:11:50;100099.44;;;16.52;97.24
80509;BME280;69838;52.602;13.434;2023-09-19T01:12:46;100097.44;;;16.54;97.14
80509;BME280;69838;52.602;13.434;2023-09-19T01:13:41;100098.94;;;16.58;96.74
80509;BME280;69838;52.602;13.434;2023-09-19T01:14:38;100099.41;;;16.64;96.45
80509;BME280;69838;52.602;13.434;2023-09-19T01:15:40;100100.41;;;16.63;96.45
80509;BME280;69838;52.602;13.434;2023-09-19T01:16:35;100097.91;;;16.59;96.51
80509;BME280;69838;52.602;13.434;2023-09-19T01:17:28;100101.00;;;16.66;96.05
80509;BME280;69838;52.602;13.434;2023-09-19T01:18:21;100101.84;;;16.67;96.07
80509;BME280;69838;52.602;13.434;2023-09-19T01:19:41;100104.50;;;16.57;96.47
80509;BME280;69838;52.602;13.434;2023-09-19T01:20:39;100101.66;;;16.58;96.59
80509;BME280;69838;52.602;13.434;2023-09-19T01:21:40;100106.63;;;16.53;96.73
80509;BME280;69838;52.602;13.434;2023-09-19T01:22:33;100103.41;;;16.48;97.14
80509;BME280;69838;52.602;13.434;2023-09-19T01:23:29;100108.88;;;16.48;97.28
80509;BME280;69838;52.602;13.434;2023-09-19T01:26:05;100102.16;;;16.52;96.96
80509;BME280;69838;52.602;13.434;2023-09-19T01:27:11;100109.00;;;16.47;97.14
80509;BME280;69838;52.602;13.434;2023-09-19T01:28:15;100106.88;;;16.50;96.94
80509;BME280;69838;52.602;13.434;2023-09-19T01:29:23;100112.31;;;16.50;97.08
80509;BME280;69838;52.602;13.434;2023-09-19T01:30:18;100108.25;;;16.45;97.50
80509;BME280;69838;52.602;13.434;2023-09-19T01:31:10;100112.31;;;16.50;96.93
80509;BME280;69838;52.602;13.434;2023-09-19T01:31:57;100110.84;;;16.46;97.31
80509;BME280;69838;52.602;13.434;2023-09-19T01:32:46;100112.31;;;16.50;96.89
80509;BME280;69838;52.602;13.434;2023-09-19T01:33:54;100116.91;;;16.50;97.14
80509;BME280;69838;52.602;13.434;2023-09-19T01:34:46;100115.03;;;16.50;96.98
80509;BME280;69838;52.602;13.434;2023-09-19T01:35:37;100110.59;;;16.49;97.18
80509;BME280;69838;52.602;13.434;2023-09-19T01:36:24;100114.41;;;16.58;96.60
80509;BME280;69838;52.602;13.434;2023-09-19T01:37:09;100106.44;;;16.66;96.07
80509;BME280;69838;52.602;13.434;2023-09-19T01:37:55;100115.97;;;16.72;95.54
80509;BME280;69838;52.602;13.434;2023-09-19T01:38:41;100113.97;;;16.74;95.36
80509;BME280;69838;52.602;13.434;2023-09-19T01:39:26;100118.69;;;16.72;95.63
80509;BME280;69838;52.602;13.434;2023-09-19T01:40:14;100120.06;;;16.66;95.91
80509;BME280;69838;52.602;13.434;2023-09-19T01:41:06;100116.50;;;16.66;95.81
80509;BME280;69838;52.602;13.434;2023-09-19T01:41:59;100116.75;;;16.63;96.16
80509;BME280;69838;52.602;13.434;2023-09-19T01:42:54;100115.88;;;16.62;96.21
80509;BME280;69838;52.602;13.434;2023-09-19T01:43:42;100117.13;;;16.58;96.35
80509;BME280;69838;52.602;13.434;2023-09-19T01:44:35;100118.75;;;16.60;96.15
80509;BME280;69838;52.602;13.434;2023-09-19T01:45:31;100111.28;;;16.63;96.13
80509;BME280;69838;52.602;13.434;2023-09-19T01:46:21;100113.03;;;16.64;96.11
80509;BME280;69838;52.602;13.434;2023-09-19T01:47:17;100121.94;;;16.66;95.91
80509;BME280;69838;52.602;13.434;2023-09-19T01:48:15;100113.66;;;16.67;95.71
80509;BME280;69838;52.602;13.434;2023-09-19T01:49:15;100118.22;;;16.67;95.66
80509;BME280;69838;52.602;13.434;2023-09-19T01:50:12;100117.97;;;16.70;95.45
80509;BME280;69838;52.602;13.434;2023-09-19T01:51:06;100116.38;;;16.67;95.72
80509;BME280;69838;52.602;13.434;2023-09-19T01:51:56;100118.50;;;16.64;95.95
80509;BME280;69838;52.602;13.434;2023-09-19T01:52:48;100120.44;;;16.61;96.05
80509;BME280;69838;52.602;13.434;2023-09-19T01:53:36;100113.78;;;16.66;95.83
80509;BME280;69838;52.602;13.434;2023-09-19T01:54:28;100118.22;;;16.67;95.42
80509;BME280;69838;52.602;13.434;2023-09-19T01:55:17;100116.75;;;16.63;95.72
80509;BME280;69838;52.602;13.434;2023-09-19T01:56:08;100119.84;;;16.58;95.87
80509;BME280;69838;52.602;13.434;2023-09-19T01:57:03;100114.56;;;16.56;95.93
80509;BME280;69838;52.602;13.434;2023-09-19T01:57:54;100115.53;;;16.55;96.05
80509;BME280;69838;52.602;13.434;2023-09-19T01:58:48;100108.94;;;16.58;95.95
80509;BME280;69838;52.602;13.434;2023-09-19T01:59:41;100102.28;;;16.51;95.99
80509;BME280;69838;52.602;13.434;2023-09-19T02:00:32;100103.78;;;16.44;96.26
80509;BME280;69838;52.602;13.434;2023-09-19T02:01:22;100113.34;;;16.38;96.69
80509;BME280;69838;52.602;13.434;2023-09-19T02:02:08;100104.69;;;16.33;97.28
80509;BME280;69838;52.602;13.434;2023-09-19T02:02:54;100105.03;;;16.39;96.92
80509;BME280;69838;52.602;13.434;2023-09-19T02:03:43;100110.88;;;16.35;97.23
80509;BME280;69838;52.602;13.434;2023-09-19T02:04:29;100117.56;;;16.31;97.45
80509;BME280;69838;52.602;13.434;2023-09-19T02:05:22;100110.88;;;16.23;97.73
80509;BME280;69838;52.602;13.434;2023-09-19T02:06:07;100116.47;;;16.22;97.93
80509;BME280;69838;52.602;13.434;2023-09-19T02:06:56;100118.84;;;16.15;98.30
80509;BME280;69838;52.602;13.434;2023-09-19T02:07:43;100124.28;;;16.15;98.58
80509;BME280;69838;52.602;13.434;2023-09-19T02:08:28;100117.63;;;16.08;98.87
80509;BME280;69838;52.602;13.434;2023-09-19T02:09:14;100130.50;;;16.06;98.95
80509;BME280;69838;52.602;13.434;2023-09-19T02:10:01;100121.19;;;16.09;98.88
80509;BME280;69838;52.602;13.434;2023-09-19T02:10:48;100123.31;;;16.05;99.23
80509;BME280;69838;52.602;13.434;2023-09-19T02:11:34;100127.88;;;16.05;99.17
80509;BME280;69838;52.602;13.434;2023-09-19T02:12:20;100129.59;;;16.06;99.07
80509;BME280;69838;52.602;13.434;2023-09-19T02:13:05;100126.53;;;15.99;99.39
80509;BME280;69838;52.602;13.434;2023-09-19T02:13:52;100127.16;;;16.02;99.58
80509;BME280;69838;52.602;13.434;2023-09-19T02:14:39;100126.78;;;15.96;99.80
80509;BME280;69838;52.602;13.434;2023-09-19T02:15:25;100138.63;;;15.95;99.90
80509;BME280;69838;52.602;13.434;2023-09-19T02:16:12;100125.78;;;15.97;99.68
80509;BME280;69838;52.602;13.434;2023-09-19T02:16:58;100131.47;;;15.94;99.88
80509;BME280;69838;52.602;13.434;2023-09-19T02:17:45;100137.78;;;15.94;100.00
80509;BME280;69838;52.602;13.434;2023-09-19T02:18:31;100131.72;;;15.91;100.00
80509;BME280;69838;52.602;13.434;2023-09-19T02:19:16;100134.31;;;15.92;100.00
80509;BME280;69838;52.602;13.434;2023-09-19T02:20:03;100133.19;;;15.95;100.00
80509;BME280;69838;52.602;13.434;2023-09-19T02:20:56;100136.94;;;15.94;100.00
80509;BME280;69838;52.602;13.434;2023-09-19T02:21:43;100138.13;;;15.90;100.00
80509;BME280;69838;52.602;13.434;2023-09-19T02:22:29;100127.75;;;15.95;100.00
80509;BME280;69838;52.602;13.434;2023-09-19T02:23:14;100131.22;;;15.97;100.00
80509;BME280;69838;52.602;13.434;2023-09-19T02:24:02;100125.31;;;15.92;100.00
80509;BME280;69838;52.602;13.434;2023-09-19T02:24:48;100139.38;;;15.86;100.00
80509;BME280;69838;52.602;13.434;2023-09-19T02:25:33;100139.63;;;15.82;100.00
80509;BME280;69838;52.602;13.434;2023-09-19T02:26:20;100137.66;;;15.84;100.00
80509;BME280;69838;52.602;13.434;2023-09-19T02:27:05;100147.66;;;15.84;100.00
80509;BME280;69838;52.602;13.434;2023-09-19T02:27:52;100138.75;;;15.82;100.00
80509;BME280;69838;52.602;13.434;2023-09-19T02:28:39;100136.44;;;15.77;100.00
80509;BME280;69838;52.602;13.434;2023-09-19T02:29:24;100138.25;;;15.77;100.00
80509;BME280;69838;52.602;13.434;2023-09-19T02:30:11;100145.56;;;15.76;100.00
80509;BME280;69838;52.602;13.434;2023-09-19T02:30:58;100131.59;;;15.81;100.00
80509;BME280;69838;52.602;13.434;2023-09-19T02:31:44;100134.69;;;15.76;100.00
80509;BME280;69838;52.602;13.434;2023-09-19T02:32:31;100147.75;;;15.71;100.00
80509;BME280;69838;52.602;13.434;2023-09-19T02:33:17;100128.22;;;15.66;100.00
80509;BME280;69838;52.602;13.434;2023-09-19T02:34:02;100144.53;;;15.66;100.00
80509;BME280;69838;52.602;13.434;2023-09-19T02:34:48;100139.31;;;15.63;100.00
80509;BME280;69838;52.602;13.434;2023-09-19T02:35:34;100138.69;;;15.59;100.00
80509;BME280;69838;52.602;13.434;2023-09-19T02:36:21;100141.81;;;15.55;100.00
80509;BME280;69838;52.602;13.434;2023-09-19T02:37:08;100149.47;;;15.50;100.00
80509;BME280;69838;52.602;13.434;2023-09-19T02:37:53;100147.72;;;15.49;100.00
80509;BME280;69838;52.602;13.434;2023-09-19T02:38:39;100145.63;;;15.52;100.00
80509;BME280;69838;52.602;13.434;2023-09-19T02:39:25;100142.66;;;15.55;100.00
80509;BME280;69838;52.602;13.434;2023-09-19T02:40:11;100140.06;;;15.54;100.00
80509;BME280;69838;52.602;13.434;2023-09-19T02:41:03;100147.47;;;15.63;100.00
80509;BME280;69838;52.602;13.434;2023-09-19T02:41:50;100143.06;;;15.62;100.00
80509;BME280;69838;52.602;13.434;2023-09-19T02:42:35;100147.75;;;15.60;100.00
80509;BME280;69838;52.602;13.434;2023-09-19T02:43:21;100144.53;;;15.55;100.00
80509;BME280;69838;52.602;13.434;2023-09-19T02:44:07;100148.22;;;15.54;100.00
80509;BME280;69838;52.602;13.434;2023-09-19T02:44:52;100151.94;;;15.53;100.00
80509;BME280;69838;52.602;13.434;2023-09-19T02:45:38;100154.69;;;15.64;100.00
80509;BME280;69838;52.602;13.434;2023-09-19T02:46:24;100152.19;;;15.61;100.00
80509;BME280;69838;52.602;13.434;2023-09-19T02:47:11;100149.97;;;15.55;100.00
80509;BME280;69838;52.602;13.434;2023-09-19T02:47:56;100160.34;;;15.50;100.00
80509;BME280;69838;52.602;13.434;2023-09-19T02:48:43;100156.38;;;15.54;100.00
80509;BME280;69838;52.602;13.434;2023-09-19T02:49:28;100160.44;;;15.48;100.00
80509;BME280;69838;52.602;13.434;2023-09-19T02:50:15;100164.28;;;15.45;100.00
80509;BME280;69838;52.602;13.434;2023-09-19T02:51:02;100154.50;;;15.43;100.00
80509;BME280;69838;52.602;13.434;2023-09-19T02:51:50;100156.25;;;15.44;100.00
80509;BME280;69838;52.602;13.434;2023-09-19T02:52:37;100157.84;;;15.46;100.00
80509;BME280;69838;52.602;13.434;2023-09-19T02:53:22;100159.81;;;15.44;100.00
80509;BME280;69838;52.602;13.434;2023-09-19T02:54:09;100166.50;;;15.40;100.00
80509;BME280;69838;52.602;13.434;2023-09-19T02:54:56;100160.84;;;15.43;100.00
80509;BME280;69838;52.602;13.434;2023-09-19T02:55:42;100165.25;;;15.44;100.00
80509;BME280;69838;52.602;13.434;2023-09-19T02:56:28;100169.09;;;15.42;100.00
80509;BME280;69838;52.602;13.434;2023-09-19T02:57:14;100161.06;;;15.40;100.00
80509;BME280;69838;52.602;13.434;2023-09-19T02:58:02;100165.00;;;15.36;100.00
80509;BME280;69838;52.602;13.434;2023-09-19T02:58:48;100169.97;;;15.42;100.00
80509;BME280;69838;52.602;13.434;2023-09-19T02:59:34;100164.13;;;15.36;100.00
80509;BME280;69838;52.602;13.434;2023-09-19T03:00:22;100165.47;;;15.30;100.00
80509;BME280;69838;52.602;13.434;2023-09-19T03:01:08;100163.75;;;15.29;100.00
80509;BME280;69838;52.602;13.434;2023-09-19T03:01:56;100164.00;;;15.26;100.00
80509;BME280;69838;52.602;13.434;2023-09-19T03:02:43;100169.53;;;15.24;100.00
80509;BME280;69838;52.602;13.434;2023-09-19T03:03:31;100170.88;;;15.19;100.00
80509;BME280;69838;52.602;13.434;2023-09-19T03:04:16;100173.84;;;15.16;100.00
80509;BME280;69838;52.602;13.434;2023-09-19T03:05:05;100167.88;;;15.11;100.00
80509;BME280;69838;52.602;13.434;2023-09-19T03:05:51;100170.38;;;15.14;100.00
80509;BME280;69838;52.602;13.434;2023-09-19T03:06:38;100176.31;;;15.19;100.00
80509;BME280;69838;52.602;13.434;2023-09-19T03:07:25;100163.47;;;15.21;100.00
80509;BME280;69838;52.602;13.434;2023-09-19T03:08:10;100173.59;;;15.19;100.00
80509;BME280;69838;52.602;13.434;2023-09-19T03:08:55;100172.84;;;15.17;100.00
80509;BME280;69838;52.602;13.434;2023-09-19T03:09:41;100183.22;;;15.12;100.00
80509;BME280;69838;52.602;13.434;2023-09-19T03:10:28;100177.78;;;15.12;100.00
80509;BME280;69838;52.602;13.434;2023-09-19T03:11:14;100170.25;;;15.15;100.00
80509;BME280;69838;52.602;13.434;2023-09-19T03:12:04;100174.88;;;15.26;100.00
80509;BME280;69838;52.602;13.434;2023-09-19T03:12:50;100173.38;;;15.22;100.00
80509;BME280;69838;52.602;13.434;2023-09-19T03:13:35;100177.06;;;15.21;100.00
80509;BME280;69838;52.602;13.434;2023-09-19T03:14:23;100180.00;;;15.18;100.00
80509;BME280;69838;52.602;13.434;2023-09-19T03:15:09;100180.75;;;15.20;100.00
80509;BME280;69838;52.602;13.434;2023-09-19T03:15:54;100173.41;;;15.33;100.00
80509;BME280;69838;52.602;13.434;2023-09-19T03:16:41;100176.34;;;15.30;100.00
80509;BME280;69838;52.602;13.434;2023-09-19T03:17:27;100176.84;;;15.24;100.00
80509;BME280;69838;52.602;13.434;2023-09-19T03:18:14;100178.81;;;15.22;100.00
80509;BME280;69838;52.602;13.434;2023-09-19T03:19:00;100184.88;;;15.25;100.00
80509;BME280;69838;52.602;13.434;2023-09-19T03:19:46;100175.94;;;15.23;100.00
80509;BME280;69838;52.602;13.434;2023-09-19T03:20:32;100178.56;;;15.25;100.00
80509;BME280;69838;52.602;13.434;2023-09-19T03:21:18;100179.66;;;15.22;100.00
80509;BME280;69838;52.602;13.434;2023-09-19T03:22:04;100185.97;;;15.23;100.00
80509;BME280;69838;52.602;13.434;2023-09-19T03:22:50;100176.84;;;15.24;100.00
80509;BME280;69838;52.602;13.434;2023-09-19T03:23:37;100182.28;;;15.24;100.00
80509;BME280;69838;52.602;13.434;2023-09-19T03:24:23;100179.28;;;15.27;100.00
80509;BME280;69838;52.602;13.434;2023-09-19T03:25:09;100180.06;;;15.29;100.00
80509;BME280;69838;52.602;13.434;2023-09-19T03:25:56;100177.84;;;15.34;100.00
80509;BME280;69838;52.602;13.434;2023-09-19T03:26:44;100181.19;;;15.38;100.00
80509;BME280;69838;52.602;13.434;2023-09-19T03:27:30;100180.34;;;15.37;100.00
80509;BME280;69838;52.602;13.434;2023-09-19T03:28:15;100190.69;;;15.32;100.00
80509;BME280;69838;52.602;13.434;2023-09-19T03:29:03;100179.81;;;15.32;100.00
80509;BME280;69838;52.602;13.434;2023-09-19T03:29:51;100188.50;;;15.37;100.00
80509;BME280;69838;52.602;13.434;2023-09-19T03:30:36;100190.34;;;15.37;100.00
80509;BME280;69838;52.602;13.434;2023-09-19T03:31:23;100190.03;;;15.53;100.00
80509;BME280;69838;52.602;13.434;2023-09-19T03:32:09;100192.47;;;15.56;100.00
80509;BME280;69838;52.602;13.434;2023-09-19T03:32:55;100200.78;;;15.54;100.00
80509;BME280;69838;52.602;13.434;2023-09-19T03:33:43;100189.91;;;15.54;100.00
80509;BME280;69838;52.602;13.434;2023-09-19T03:34:28;100188.16;;;15.53;100.00
80509;BME280;69838;52.602;13.434;2023-09-19T03:35:14;100189.41;;;15.60;99.20
80509;BME280;69838;52.602;13.434;2023-09-19T03:36:01;100188.28;;;15.63;98.63
80509;BME280;69838;52.602;13.434;2023-09-19T03:36:49;100199.19;;;15.63;98.14
80509;BME280;69838;52.602;13.434;2023-09-19T03:37:36;100193.28;;;15.69;97.28
80509;BME280;69838;52.602;13.434;2023-09-19T03:38:21;100201.84;;;15.76;96.52
80509;BME280;69838;52.602;13.434;2023-09-19T03:39:06;100197.47;;;15.73;96.68
80509;BME280;69838;52.602;13.434;2023-09-19T03:39:53;100198.84;;;15.68;96.91
80509;BME280;69838;52.602;13.434;2023-09-19T03:40:38;100200.31;;;15.72;96.12
80509;BME280;69838;52.602;13.434;2023-09-19T03:41:23;100197.59;;;15.72;96.07
80509;BME280;69838;52.602;13.434;2023-09-19T03:42:10;100198.25;;;15.75;95.31
80509;BME280;69838;52.602;13.434;2023-09-19T03:42:55;100194.94;;;15.83;94.57
80509;BME280;69838;52.602;13.434;2023-09-19T03:43:40;100202.72;;;15.88;94.20
80509;BME280;69838;52.602;13.434;2023-09-19T03:44:27;100197.53;;;15.84;94.16
80509;BME280;69838;52.602;13.434;2023-09-19T03:45:12;100200.75;;;15.78;94.59
80509;BME280;69838;52.602;13.434;2023-09-19T03:46:01;100205.88;;;15.70;95.01
80509;BME280;69838;52.602;13.434;2023-09-19T03:46:47;100196.47;;;15.63;95.11
80509;BME280;69838;52.602;13.434;2023-09-19T03:47:33;100204.75;;;15.61;95.01
80509;BME280;69838;52.602;13.434;2023-09-19T03:48:19;100206.03;;;15.69;94.37
80509;BME280;69838;52.602;13.434;2023-09-19T03:49:06;100208.03;;;15.78;93.61
80509;BME280;69838;52.602;13.434;2023-09-19T03:49:53;100205.63;;;15.73;93.59
80509;BME280;69838;52.602;13.434;2023-09-19T03:50:39;100205.88;;;15.70;93.44
80509;BME280;69838;52.602;13.434;2023-09-19T03:51:24;100212.31;;;15.69;93.52
80509;BME280;69838;52.602;13.434;2023-09-19T03:52:10;100212.66;;;15.64;93.87
80509;BME280;69838;52.602;13.434;2023-09-19T03:52:56;100215.50;;;15.63;93.57
80509;BME280;69838;52.602;13.434;2023-09-19T03:53:42;100216.28;;;15.65;93.22
80509;BME280;69838;52.602;13.434;2023-09-19T03:54:28;100217.25;;;15.64;93.53
80509;BME280;69838;52.602;13.434;2023-09-19T03:55:13;100207.84;;;15.68;92.82
80509;BME280;69838;52.602;13.434;2023-09-19T03:55:59;100216.53;;;15.73;92.30
80509;BME280;69838;52.602;13.434;2023-09-19T03:56:46;100211.06;;;15.73;91.98
80509;BME280;69838;52.602;13.434;2023-09-19T03:57:32;100223.50;;;15.77;91.87
80509;BME280;69838;52.602;13.434;2023-09-19T03:58:17;100221.97;;;15.73;91.97
80509;BME280;69838;52.602;13.434;2023-09-19T03:59:04;100221.53;;;15.79;91.39
80509;BME280;69838;52.602;13.434;2023-09-19T03:59:49;100225.75;;;15.83;90.98
80509;BME280;69838;52.602;13.434;2023-09-19T04:00:38;100226.97;;;15.79;91.08
80509;BME280;69838;52.602;13.434;2023-09-19T04:01:23;100225.00;;;15.81;91.03
80509;BME280;69838;52.602;13.434;2023-09-19T04:02:09;100220.19;;;15.85;90.75
80509;BME280;69838;52.602;13.434;2023-09-19T04:02:58;100212.84;;;15.74;91.18
80509;BME280;69838;52.602;13.434;2023-09-19T04:03:43;100222.81;;;15.74;91.43
80509;BME280;69838;52.602;13.434;2023-09-19T04:04:34;100222.19;;;15.70;91.13
80509;BME280;69838;52.602;13.434;2023-09-19T04:05:20;100221.97;;;15.73;90.94
80509;BME280;69838;52.602;13.434;2023-09-19T04:06:05;100227.41;;;15.73;90.58
80509;BME280;69838;52.602;13.434;2023-09-19T04:06:51;100225.91;;;15.69;90.71
80509;BME280;69838;52.602;13.434;2023-09-19T04:07:37;100221.34;;;15.70;90.63